Corinth, New York
Current Conditions -  °F | °C
As of 5:53 AM on Wednesday 26 Nov 2014 (Local Time) from KGFL Reporting Station
Clear Clear  
Wind Chill: 32°   Ceiling: Unl
Heat Index: 37°   Visibility: 10mi
Dew Point: 23°   Wind: 6mph
Humidity: 57%   Direction: 340°NNW
Pressure: 30.19"   Gusts: NA
Location:  43.24°N, 73.83°W
Report Text: KGFL 261053Z AUTO 34005KT 10SM CLR 03/M05 A3019 RMK AO2 SLP229 T00281050
Loading
Personal Weather Stations






























Interactive Weather Map New forecast layout! Learn more

10-Day Weather Forecast

Advertisements
Track Severe Weather on mobile